メインページ
METAR-TAF:

METAR-TAF

空港 :

ヴァーツラフ・ハヴェル・プラハ国際空港

プラハ, チェコ共和国

緯度: 50-06N, 経度: 014-15E, 海抜: 365m

現時点の気象観測

当レポートは40分前の07:30(UTC)に作成
南西の風 8kt
気温 2°C
湿度 80%
気圧 1024 hPa
視程10km以上
1,500メートル以下は雲なし、積乱雲なし

METAR: LKPR 190730Z 23008KT CAVOK 02/M01 Q1024 NOSIG

時間: 09:10 (08:10 UTC)

予報

当レポートは3時間10分前の05:00(UTC)に作成
予報は19日の 06時(UTC)から 20日の 12時(UTC)まで有効
西/南西の風 10kt
視程10km以上
1,500メートル以下は雲なし、積乱雲なし
19日の 08時(UTC)から 19日の 18時(UTC)まで一時的に
北西の風 14kt、最大24ktの突風を伴う
視程10km以上
高度4500ftの千切れ雲あり

TAF: LKPR 190500Z 1906/2012 24010KT CAVOK TEMPO 1908/1918 32014G24KT 9999 BKN045

4,000以上の空港の気象観測と天気予報(METAR報とTAF報)

利用可能な観測所は地図上に黄色い丸と赤い丸で示す。

丸の上にカーソルを重ねると観測所名を参照できる。

次にクリックすると気象観測と天気予報を参照できる。

マップの切り替え:黒色「×」印の緑ボタンをクリックして拡大、「-」印の緑ボタンをクリックして縮小、緑色の三角印をクリックして隣りの地図に切り替え


METAR-TAF: